Time;durP1;ratioP1;P1;durP2;ratioP2;P2;SDS_P1;SDS_P2;PMS_P1;PMS_P2;Temp;Humidity;BMP_temperature;BMP_pressure;BME280_temperature;BME280_humidity;BME280_pressure;Samples;Min_cycle;Max_cycle;Signal;HPM_P1;HPM_P2
2022/08/30 00:03:17;;;;;;;8.98;4.15;;;15.80;99.90;;;;;;4998824;28;20044;-70
2022/08/30 00:05:44;;;;;;;7.38;3.90;;;15.40;99.90;;;;;;5003609;28;20459;-72
2022/08/30 00:08:10;;;;;;;6.68;4.10;;;15.30;99.90;;;;;;4994755;28;20038;-70
2022/08/30 00:10:37;;;;;;;7.65;4.13;;;15.20;99.90;;;;;;5004092;28;20037;-72
2022/08/30 00:13:03;;;;;;;8.55;3.85;;;15.40;99.90;;;;;;4992729;28;20033;-73
2022/08/30 00:15:29;;;;;;;7.70;3.60;;;15.60;99.90;;;;;;5001507;28;20049;-71
2022/08/30 00:17:55;;;;;;;7.55;3.70;;;15.40;99.90;;;;;;5012115;28;20052;-71
2022/08/30 00:20:25;;;;;;;7.95;3.55;;;15.50;99.90;;;;;;5012456;28;20029;-71
2022/08/30 00:22:51;;;;;;;9.18;4.22;;;15.50;99.90;;;;;;5012330;28;20041;-71
2022/08/30 00:25:18;;;;;;;9.70;4.47;;;15.50;99.90;;;;;;5002798;28;20042;-72
2022/08/30 00:27:44;;;;;;;7.40;4.03;;;15.40;99.90;;;;;;4992225;28;20388;-72
2022/08/30 00:30:12;;;;;;;9.18;4.32;;;15.40;99.90;;;;;;4992606;28;20073;-71
2022/08/30 00:32:37;;;;;;;10.77;4.82;;;15.40;99.90;;;;;;4995659;28;20034;-71
2022/08/30 00:35:05;;;;;;;8.65;4.40;;;15.20;99.90;;;;;;5010818;28;20033;-72
2022/08/30 00:37:31;;;;;;;8.40;4.13;;;15.20;99.90;;;;;;4994948;28;20049;-72
2022/08/30 00:39:57;;;;;;;5.90;3.95;;;15.20;99.90;;;;;;4992531;28;20491;-73
2022/08/30 00:42:22;;;;;;;6.72;3.90;;;15.30;99.90;;;;;;4992443;28;20150;-73
2022/08/30 00:44:49;;;;;;;8.80;4.20;;;15.50;99.90;;;;;;4995368;28;20026;-73
2022/08/30 00:47:16;;;;;;;6.75;4.40;;;15.50;99.90;;;;;;5011784;28;20109;-73
2022/08/30 00:49:45;;;;;;;7.70;4.43;;;15.50;99.90;;;;;;5011949;28;20040;-72
2022/08/30 00:52:11;;;;;;;6.47;4.35;;;15.50;99.90;;;;;;5002425;28;20049;-73
2022/08/30 00:54:40;;;;;;;11.50;5.53;;;15.30;99.90;;;;;;5011889;28;20071;-73
2022/08/30 00:57:06;;;;;;;9.93;4.35;;;15.50;99.90;;;;;;5011762;28;20034;-73
2022/08/30 00:59:33;;;;;;;10.13;4.68;;;15.50;99.90;;;;;;4999750;28;20022;-72
2022/08/30 01:02:00;;;;;;;8.50;4.20;;;15.50;99.90;;;;;;4992246;28;20034;-72
2022/08/30 01:04:27;;;;;;;6.53;3.95;;;15.40;99.90;;;;;;4992235;28;20461;-72
2022/08/30 01:06:53;;;;;;;10.48;4.75;;;15.50;99.90;;;;;;4992037;28;20058;-73
2022/08/30 01:09:19;;;;;;;12.85;4.80;;;15.50;99.90;;;;;;4991066;28;20030;-73
2022/08/30 01:11:46;;;;;;;9.60;4.65;;;15.30;99.90;;;;;;4997893;28;20026;-73
2022/08/30 01:14:13;;;;;;;7.82;4.25;;;15.30;99.90;;;;;;4999188;28;20037;-73
2022/08/30 01:16:40;;;;;;;6.68;3.92;;;15.20;99.90;;;;;;4994076;28;20488;-71
2022/08/30 01:19:34;;;;;;;10.07;4.13;;;15.20;99.90;;;;;;4995913;28;20447;-71
2022/08/30 01:22:36;;;;;;;10.80;4.70;;;15.30;99.90;;;;;;4996047;28;20037;-70
2022/08/30 01:25:05;;;;;;;10.00;5.55;;;15.30;99.90;;;;;;5004739;28;20444;-71
2022/08/30 01:27:33;;;;;;;9.65;4.95;;;15.20;99.90;;;;;;4998429;28;20108;-71
2022/08/30 01:30:00;;;;;;;10.10;5.07;;;15.10;99.90;;;;;;4995971;28;20037;-72
2022/08/30 01:32:28;;;;;;;10.93;4.68;;;15.20;99.90;;;;;;5011735;28;20096;-72
2022/08/30 01:34:55;;;;;;;11.30;4.78;;;15.00;99.90;;;;;;5004234;28;20030;-72
2022/08/30 01:37:31;;;;;;;10.07;4.32;;;15.10;99.90;;;;;;5008747;28;20034;-72
2022/08/30 01:39:57;;;;;;;7.63;3.85;;;15.00;99.90;;;;;;5019359;28;20025;-72
2022/08/30 01:42:23;;;;;;;9.07;4.47;;;14.90;99.90;;;;;;5019143;28;20034;-72
2022/08/30 01:44:48;;;;;;;8.95;3.80;;;15.00;99.90;;;;;;5012810;28;20101;-71
2022/08/30 01:47:17;;;;;;;8.32;4.43;;;15.00;99.90;;;;;;5011641;28;20484;-72
2022/08/30 01:49:43;;;;;;;10.80;4.50;;;15.10;99.90;;;;;;5026710;28;20034;-71
2022/08/30 01:52:09;;;;;;;8.15;4.70;;;15.10;99.90;;;;;;5016310;28;20042;-71
2022/08/30 01:54:37;;;;;;;7.72;4.45;;;15.00;99.90;;;;;;5029772;28;20028;-71
2022/08/30 01:57:04;;;;;;;6.50;4.45;;;15.10;99.90;;;;;;5013534;28;20022;-72
2022/08/30 01:59:30;;;;;;;6.57;4.55;;;15.20;99.90;;;;;;5026058;28;20485;-71
2022/08/30 02:01:55;;;;;;;7.68;4.35;;;15.00;99.90;;;;;;5020402;28;20184;-72
2022/08/30 02:04:21;;;;;;;7.15;3.95;;;15.10;99.90;;;;;;5022786;28;20383;-72
2022/08/30 02:06:47;;;;;;;7.00;4.25;;;15.10;99.90;;;;;;5023082;28;20052;-72
2022/08/30 02:09:13;;;;;;;9.85;4.72;;;15.00;99.90;;;;;;5022065;28;20025;-70
2022/08/30 02:11:39;;;;;;;7.63;4.43;;;14.90;99.90;;;;;;5016222;28;20080;-71
2022/08/30 02:14:05;;;;;;;7.30;4.57;;;14.90;99.90;;;;;;5024707;28;20060;-70
2022/08/30 02:16:31;;;;;;;7.97;4.65;;;14.80;99.90;;;;;;5022217;28;20026;-70
2022/08/30 02:18:57;;;;;;;9.48;5.10;;;14.80;99.90;;;;;;5024944;28;20387;-70
2022/08/30 02:21:24;;;;;;;7.25;4.55;;;14.70;99.90;;;;;;5013438;28;20093;-70
2022/08/30 02:23:50;;;;;;;7.22;4.85;;;14.80;99.90;;;;;;5018377;28;20029;-71
2022/08/30 02:26:17;;;;;;;6.43;4.05;;;14.80;99.90;;;;;;5019183;28;20022;-72
2022/08/30 02:28:43;;;;;;;8.73;4.60;;;15.00;99.90;;;;;;5029105;28;20037;-71
2022/08/30 02:31:10;;;;;;;8.45;4.40;;;14.90;99.90;;;;;;5013643;28;20033;-71
2022/08/30 02:33:36;;;;;;;6.22;4.63;;;14.80;99.90;;;;;;5027566;28;20037;-71
2022/08/30 02:36:03;;;;;;;6.28;4.40;;;14.80;99.90;;;;;;5012783;28;20034;-71
2022/08/30 02:38:29;;;;;;;7.07;4.72;;;14.70;99.90;;;;;;5021617;28;20025;-71
2022/08/30 02:40:55;;;;;;;7.80;4.75;;;14.70;99.90;;;;;;5021002;28;20030;-72
2022/08/30 02:43:20;;;;;;;7.78;4.53;;;14.70;99.90;;;;;;5023464;28;20151;-72
2022/08/30 02:45:46;;;;;;;9.13;4.60;;;14.90;99.90;;;;;;5007401;28;20050;-71
2022/08/30 02:48:12;;;;;;;7.88;5.25;;;14.90;99.90;;;;;;5006729;28;20120;-71
2022/08/30 02:50:43;;;;;;;9.50;5.10;;;14.80;99.90;;;;;;5014357;28;20026;-72
2022/08/30 02:53:08;;;;;;;9.30;4.88;;;14.80;99.90;;;;;;5013086;28;20033;-72
2022/08/30 02:55:34;;;;;;;8.85;5.50;;;14.80;99.90;;;;;;5018357;28;20494;-72
2022/08/30 02:57:59;;;;;;;7.25;4.82;;;14.80;99.90;;;;;;5017874;28;20032;-72
2022/08/30 03:00:25;;;;;;;10.13;5.22;;;14.90;99.90;;;;;;5018571;28;20019;-72
2022/08/30 03:02:51;;;;;;;8.40;4.82;;;14.80;99.90;;;;;;5027479;28;20396;-72
2022/08/30 03:05:17;;;;;;;9.25;5.50;;;14.80;99.90;;;;;;5015778;28;20030;-72
2022/08/30 03:07:44;;;;;;;9.98;5.45;;;14.70;99.90;;;;;;5027285;28;20040;-72
2022/08/30 03:10:10;;;;;;;8.25;5.35;;;14.60;99.90;;;;;;5010493;28;20378;-72
2022/08/30 03:12:36;;;;;;;7.07;4.70;;;14.10;99.90;;;;;;5022037;28;20100;-72
2022/08/30 03:15:02;;;;;;;9.27;4.60;;;14.40;99.90;;;;;;5018565;28;20403;-72
2022/08/30 03:17:29;;;;;;;8.82;5.05;;;14.50;99.90;;;;;;5019318;28;20112;-72
2022/08/30 03:19:55;;;;;;;9.05;5.10;;;14.50;99.90;;;;;;5009414;28;20376;-71
2022/08/30 03:22:21;;;;;;;10.60;5.72;;;14.50;99.90;;;;;;5020074;28;20032;-72
2022/08/30 03:24:47;;;;;;;9.13;4.90;;;14.80;99.90;;;;;;5017249;28;20037;-72
2022/08/30 03:27:12;;;;;;;9.20;5.32;;;14.60;99.90;;;;;;5017252;28;20025;-72
2022/08/30 03:29:38;;;;;;;9.50;5.80;;;14.50;99.90;;;;;;5017241;28;20026;-71
2022/08/30 03:32:04;;;;;;;11.15;5.55;;;14.40;99.90;;;;;;5016642;28;20037;-71
2022/08/30 03:34:31;;;;;;;11.68;5.88;;;14.30;99.90;;;;;;5015268;28;20026;-72
2022/08/30 03:36:57;;;;;;;10.23;5.60;;;14.20;99.90;;;;;;5024284;28;20018;-72
2022/08/30 03:39:23;;;;;;;8.98;5.43;;;14.20;99.90;;;;;;5011923;28;20033;-72
2022/08/30 03:41:49;;;;;;;12.80;5.50;;;14.40;99.90;;;;;;5017555;28;20156;-70
2022/08/30 03:44:15;;;;;;;9.82;5.50;;;14.30;99.90;;;;;;5028015;28;20029;-71
2022/08/30 03:46:41;;;;;;;8.43;5.47;;;14.30;99.90;;;;;;5018571;28;20494;-71
2022/08/30 03:49:07;;;;;;;9.77;5.20;;;14.20;99.90;;;;;;5020088;28;20025;-72
2022/08/30 03:51:33;;;;;;;11.10;4.93;;;14.30;99.90;;;;;;5020675;28;20025;-72
2022/08/30 03:54:00;;;;;;;9.18;4.97;;;14.10;99.90;;;;;;5002328;28;20152;-71
2022/08/30 03:56:26;;;;;;;9.82;4.90;;;14.10;99.90;;;;;;5019746;28;20027;-72
2022/08/30 03:58:51;;;;;;;10.30;6.45;;;13.90;99.90;;;;;;5015477;28;20030;-71
2022/08/30 04:01:17;;;;;;;8.02;4.93;;;13.80;99.90;;;;;;5027086;28;20029;-71
2022/08/30 04:03:43;;;;;;;8.00;5.40;;;13.90;99.90;;;;;;5019274;28;20017;-72
2022/08/30 04:06:08;;;;;;;8.25;5.15;;;13.50;99.90;;;;;;5010232;28;20021;-71
2022/08/30 04:08:35;;;;;;;9.25;5.43;;;13.50;99.90;;;;;;5017985;28;20062;-72
2022/08/30 04:11:01;;;;;;;9.18;5.28;;;13.40;99.90;;;;;;5016915;28;20022;-71
2022/08/30 04:13:27;;;;;;;6.53;5.00;;;13.50;99.90;;;;;;5016285;28;20033;-70
2022/08/30 04:15:53;;;;;;;9.25;5.40;;;13.60;99.90;;;;;;5027082;28;20021;-71
2022/08/30 04:18:19;;;;;;;8.25;5.50;;;13.60;99.90;;;;;;5011065;28;20023;-71
2022/08/30 04:20:46;;;;;;;9.13;5.43;;;13.70;99.90;;;;;;5021290;28;20100;-72
2022/08/30 04:23:12;;;;;;;13.75;5.53;;;13.80;99.90;;;;;;5012634;28;20034;-72
2022/08/30 04:25:39;;;;;;;7.18;4.80;;;13.80;99.90;;;;;;5040066;22;20050;-75
2022/08/30 04:28:05;;;;;;;7.97;5.35;;;13.90;99.90;;;;;;4998698;28;20543;-76
2022/08/30 04:30:31;;;;;;;10.32;5.30;;;13.70;99.90;;;;;;5001899;28;20026;-75
2022/08/30 04:32:57;;;;;;;10.00;4.47;;;13.60;99.90;;;;;;4998697;28;20381;-76
2022/08/30 04:35:23;;;;;;;7.75;4.97;;;14.00;99.90;;;;;;4995428;28;20180;-76
2022/08/30 04:37:49;;;;;;;11.18;5.15;;;13.90;99.90;;;;;;4979618;28;20027;-76
2022/08/30 04:40:15;;;;;;;16.67;5.97;;;13.90;99.90;;;;;;4994690;28;20033;-75
2022/08/30 04:42:42;;;;;;;14.40;5.28;;;13.90;99.90;;;;;;5003438;28;20045;-74
2022/08/30 04:45:11;;;;;;;9.82;5.50;;;13.60;99.90;;;;;;4997901;28;20037;-74
2022/08/30 04:47:38;;;;;;;10.32;5.82;;;13.50;99.90;;;;;;5000912;28;20036;-77
2022/08/30 04:50:08;;;;;;;10.93;5.35;;;13.60;99.90;;;;;;5005967;28;20061;-75
2022/08/30 04:52:34;;;;;;;10.10;5.38;;;13.60;99.90;;;;;;5006991;28;20117;-76
2022/08/30 04:55:00;;;;;;;8.90;5.40;;;13.20;99.90;;;;;;5005154;28;20050;-75
2022/08/30 04:57:27;;;;;;;8.95;5.25;;;13.30;99.90;;;;;;5008710;28;20029;-75
2022/08/30 04:59:53;;;;;;;9.23;5.28;;;13.50;99.90;;;;;;5007538;28;20365;-75
2022/08/30 05:02:19;;;;;;;11.25;5.68;;;13.60;99.90;;;;;;5007982;28;20026;-74
2022/08/30 05:07:31;;;;;;;7.47;4.70;;;13.80;99.90;;;;;;5007858;28;20042;-74
2022/08/30 05:09:56;;;;;;;6.55;4.68;;;13.90;99.90;;;;;;4996608;28;20583;-75
2022/08/30 05:12:22;;;;;;;9.40;5.20;;;14.10;99.90;;;;;;5005616;28;20116;-75
2022/08/30 05:14:48;;;;;;;8.57;5.80;;;14.20;99.90;;;;;;4991893;28;20042;-75
2022/08/30 05:17:14;;;;;;;10.68;6.00;;;13.90;99.90;;;;;;5002360;28;20033;-76
2022/08/30 05:19:39;;;;;;;9.32;6.25;;;13.30;99.90;;;;;;4988407;28;20554;-76
2022/08/30 05:22:05;;;;;;;9.80;6.05;;;12.90;99.90;;;;;;4984338;28;20469;-75
2022/08/30 05:24:30;;;;;;;10.38;5.65;;;12.80;99.90;;;;;;5005254;28;20034;-76
2022/08/30 05:26:57;;;;;;;9.75;5.60;;;13.40;99.90;;;;;;4991264;28;20392;-76
2022/08/30 05:29:23;;;;;;;9.73;5.30;;;13.30;99.90;;;;;;4998408;28;20026;-76
2022/08/30 05:31:49;;;;;;;11.35;5.38;;;13.10;99.90;;;;;;4993041;28;20030;-76
2022/08/30 05:34:14;;;;;;;10.35;5.28;;;13.60;99.90;;;;;;4973756;28;20034;-75
2022/08/30 05:36:40;;;;;;;9.07;5.00;;;13.70;99.90;;;;;;4988773;28;20026;-75
2022/08/30 05:39:08;;;;;;;8.88;5.40;;;14.00;99.90;;;;;;4988628;28;20110;-75
2022/08/30 05:41:34;;;;;;;8.90;4.85;;;14.00;99.90;;;;;;4981663;28;20030;-75
2022/08/30 05:44:01;;;;;;;8.98;5.30;;;14.10;99.90;;;;;;4981872;28;20025;-74
2022/08/30 05:46:31;;;;;;;11.65;5.20;;;14.40;99.90;;;;;;4997938;28;20034;-75
2022/08/30 05:48:58;;;;;;;9.40;5.82;;;14.60;99.90;;;;;;5001372;28;20027;-76
2022/08/30 05:51:27;;;;;;;10.63;5.07;;;14.90;99.90;;;;;;4988250;28;20061;-73
2022/08/30 05:53:55;;;;;;;7.63;5.25;;;14.80;99.90;;;;;;4989695;28;20037;-74
2022/08/30 05:56:28;;;;;;;7.32;5.32;;;14.50;99.90;;;;;;4977623;28;20700;-76
2022/08/30 05:58:54;;;;;;;8.23;5.85;;;14.60;99.90;;;;;;4976432;28;20030;-75
2022/08/30 06:01:23;;;;;;;16.02;5.60;;;14.70;99.90;;;;;;4976941;28;20027;-76
2022/08/30 06:03:50;;;;;;;9.50;5.95;;;14.60;99.90;;;;;;4984440;28;20042;-76
2022/08/30 06:06:15;;;;;;;10.43;5.30;;;15.00;99.90;;;;;;5000100;28;20065;-76
2022/08/30 06:08:44;;;;;;;10.15;5.97;;;15.20;99.90;;;;;;4985341;28;20062;-76
2022/08/30 06:11:11;;;;;;;11.02;5.65;;;15.30;99.90;;;;;;4986586;28;20022;-76
2022/08/30 06:13:37;;;;;;;7.57;4.65;;;15.50;99.90;;;;;;4981911;28;20034;-76
2022/08/30 06:16:03;;;;;;;8.07;5.25;;;15.80;99.90;;;;;;4979917;28;20477;-76
2022/08/30 06:18:30;;;;;;;9.32;5.30;;;15.70;99.90;;;;;;4984310;28;20070;-75
2022/08/30 06:20:56;;;;;;;10.93;5.90;;;15.80;99.90;;;;;;4988806;28;20384;-73
2022/08/30 06:23:21;;;;;;;10.23;5.28;;;15.90;99.90;;;;;;4984446;28;20037;-73
2022/08/30 06:25:47;;;;;;;6.80;5.03;;;15.90;99.90;;;;;;4986278;28;20454;-73
2022/08/30 06:28:13;;;;;;;8.23;4.93;;;16.00;99.90;;;;;;4980463;28;20058;-73
2022/08/30 06:30:40;;;;;;;9.30;5.13;;;16.20;99.90;;;;;;4978357;28;20026;-74
2022/08/30 06:33:06;;;;;;;10.57;5.22;;;16.10;99.90;;;;;;4982902;28;20023;-73
2022/08/30 06:35:32;;;;;;;9.45;4.90;;;16.00;99.90;;;;;;4984843;28;20033;-73
2022/08/30 06:37:58;;;;;;;8.60;4.93;;;16.30;99.90;;;;;;4981785;28;20022;-74
2022/08/30 06:40:23;;;;;;;9.98;5.32;;;16.50;99.90;;;;;;4979620;28;20049;-73
2022/08/30 06:42:50;;;;;;;9.63;5.00;;;16.60;99.90;;;;;;5000084;28;20399;-73
2022/08/30 06:45:16;;;;;;;10.38;5.07;;;16.70;99.90;;;;;;4992172;28;20497;-73
2022/08/30 06:47:42;;;;;;;8.95;4.63;;;16.90;99.90;;;;;;4984182;28;20412;-73
2022/08/30 06:50:09;;;;;;;10.18;4.78;;;17.00;99.90;;;;;;4986018;28;20381;-73
2022/08/30 06:52:35;;;;;;;7.97;4.70;;;17.10;99.90;;;;;;4979842;28;20089;-73
2022/08/30 06:55:00;;;;;;;13.27;5.00;;;17.20;99.90;;;;;;4977891;28;20030;-73
2022/08/30 06:57:26;;;;;;;8.13;5.15;;;17.50;99.90;;;;;;4983745;28;20034;-73
2022/08/30 06:59:56;;;;;;;9.23;5.05;;;17.60;99.90;;;;;;4985885;28;20110;-74
2022/08/30 07:02:22;;;;;;;7.65;4.85;;;17.80;99.90;;;;;;4981619;28;20118;-74
2022/08/30 07:04:47;;;;;;;9.13;4.45;;;17.80;99.90;;;;;;4981409;28;20037;-74
2022/08/30 07:07:13;;;;;;;7.60;4.60;;;17.80;99.90;;;;;;5002800;28;20030;-74
2022/08/30 07:09:42;;;;;;;9.95;5.05;;;17.90;99.90;;;;;;4978988;28;20027;-73
2022/08/30 07:12:09;;;;;;;7.50;4.55;;;17.80;99.90;;;;;;4983100;28;20034;-73
2022/08/30 07:14:35;;;;;;;8.60;4.78;;;17.80;99.90;;;;;;5001112;28;20018;-74
2022/08/30 07:17:01;;;;;;;8.68;4.72;;;17.90;99.90;;;;;;4982558;28;20018;-73
2022/08/30 07:19:26;;;;;;;9.05;5.50;;;18.00;99.90;;;;;;4985553;28;20614;-74
2022/08/30 07:21:52;;;;;;;10.23;4.75;;;18.00;99.90;;;;;;4981770;28;20408;-73
2022/08/30 07:24:19;;;;;;;9.35;4.85;;;18.30;99.90;;;;;;4977387;28;20130;-73
2022/08/30 07:26:48;;;;;;;11.55;5.10;;;18.30;99.90;;;;;;4981180;28;20087;-74
2022/08/30 07:29:15;;;;;;;8.57;5.00;;;18.50;99.90;;;;;;4984020;28;20093;-74
2022/08/30 07:31:40;;;;;;;7.15;4.97;;;18.50;99.90;;;;;;4980148;28;20026;-74
2022/08/30 07:34:07;;;;;;;7.32;4.55;;;18.50;99.90;;;;;;4978591;28;20645;-72
2022/08/30 07:36:34;;;;;;;8.93;4.78;;;18.70;99.90;;;;;;4982303;28;20038;-74
2022/08/30 07:39:00;;;;;;;10.77;4.38;;;18.60;99.90;;;;;;4985117;28;20495;-73
2022/08/30 07:41:29;;;;;;;8.45;4.85;;;18.80;99.90;;;;;;4981021;28;20085;-75
2022/08/30 07:43:56;;;;;;;7.95;4.38;;;18.90;99.90;;;;;;4992532;28;20058;-74
2022/08/30 07:46:22;;;;;;;8.95;4.45;;;19.00;99.90;;;;;;4993111;28;20050;-75
2022/08/30 07:48:48;;;;;;;8.70;4.28;;;19.10;99.90;;;;;;4992976;28;20029;-75
2022/08/30 07:51:20;;;;;;;8.55;4.47;;;19.20;99.90;;;;;;4993245;28;20062;-74
2022/08/30 07:53:46;;;;;;;9.57;4.50;;;19.30;99.90;;;;;;4993020;28;20026;-75
2022/08/30 07:56:12;;;;;;;9.48;4.88;;;19.50;99.90;;;;;;4991832;28;20019;-74
2022/08/30 07:58:38;;;;;;;7.00;4.68;;;19.30;99.90;;;;;;4992780;28;20365;-75
2022/08/30 08:01:06;;;;;;;8.23;4.95;;;19.60;99.90;;;;;;4981294;28;20077;-74
2022/08/30 08:03:32;;;;;;;8.90;4.25;;;19.60;99.90;;;;;;4976962;28;20065;-74
2022/08/30 08:06:04;;;;;;;5.47;4.47;;;19.60;99.90;;;;;;5004269;28;20057;-74
2022/08/30 08:08:30;;;;;;;7.60;4.55;;;19.70;99.90;;;;;;4988169;28;20077;-74
2022/08/30 08:10:56;;;;;;;10.40;5.30;;;19.80;99.90;;;;;;4984516;28;20065;-74
2022/08/30 08:13:22;;;;;;;6.80;4.80;;;19.80;99.90;;;;;;4979705;28;20058;-74
2022/08/30 08:15:48;;;;;;;11.30;4.68;;;19.90;99.90;;;;;;4980788;28;20452;-74
2022/08/30 08:18:14;;;;;;;6.75;4.72;;;20.10;99.90;;;;;;4985080;28;20026;-73
2022/08/30 08:20:40;;;;;;;6.40;4.25;;;20.30;99.90;;;;;;4985660;28;20014;-76
2022/08/30 08:23:06;;;;;;;9.75;4.30;;;20.20;99.90;;;;;;4979608;28;20026;-75
2022/08/30 08:25:32;;;;;;;10.50;4.80;;;20.70;99.90;;;;;;4980146;28;20034;-73
2022/08/30 08:27:58;;;;;;;9.63;4.35;;;20.70;99.90;;;;;;4984666;28;20068;-73
2022/08/30 08:30:24;;;;;;;10.43;4.82;;;20.80;99.90;;;;;;4999998;28;20030;-73
2022/08/30 08:32:50;;;;;;;5.75;4.00;;;20.80;99.90;;;;;;4979714;28;20117;-73
2022/08/30 08:35:16;;;;;;;8.07;4.43;;;20.90;99.90;;;;;;4980159;28;20027;-73
2022/08/30 08:37:42;;;;;;;12.65;4.50;;;21.10;99.90;;;;;;4985993;28;20030;-73
2022/08/30 08:40:12;;;;;;;6.03;4.65;;;21.00;99.90;;;;;;4985702;28;20022;-75
2022/08/30 08:42:40;;;;;;;8.18;5.07;;;21.20;99.90;;;;;;4992409;28;20069;-74
2022/08/30 08:45:12;;;;;;;7.18;4.63;;;21.20;99.90;;;;;;4992246;28;20058;-74
2022/08/30 08:48:02;;;;;;;9.13;4.65;;;21.30;99.90;;;;;;4992139;28;20547;-75
2022/08/30 08:50:28;;;;;;;8.13;5.10;;;21.40;99.90;;;;;;4992310;28;20026;-74
2022/08/30 08:55:54;;;;;;;8.23;4.70;;;21.60;99.90;;;;;;4992648;28;20061;-74
2022/08/30 08:58:31;;;;;;;7.45;4.85;;;21.60;99.90;;;;;;4991959;28;20708;-74
2022/08/30 09:00:57;;;;;;;8.07;4.63;;;21.50;99.90;;;;;;4992384;28;20504;-73
2022/08/30 09:03:27;;;;;;;6.88;4.80;;;21.70;99.90;;;;;;4992141;28;20391;-74
2022/08/30 09:05:54;;;;;;;11.27;4.95;;;21.70;99.90;;;;;;4990803;28;20026;-74
2022/08/30 09:08:22;;;;;;;11.27;4.85;;;21.90;99.90;;;;;;4991956;28;20053;-75
2022/08/30 09:11:05;;;;;;;8.05;4.63;;;21.90;99.90;;;;;;4981201;28;20077;-74
2022/08/30 09:13:32;;;;;;;10.52;4.90;;;22.10;99.90;;;;;;4979483;28;20080;-75
2022/08/30 09:15:58;;;;;;;10.18;4.55;;;22.20;99.90;;;;;;4991961;28;20488;-75
2022/08/30 09:18:42;;;;;;;6.63;4.70;;;22.40;99.90;;;;;;4991853;28;20037;-74
2022/08/30 09:21:08;;;;;;;7.70;4.88;;;22.50;99.90;;;;;;4992003;28;20022;-74
2022/08/30 09:23:34;;;;;;;8.18;5.00;;;22.60;99.90;;;;;;4992039;28;20030;-75
2022/08/30 09:26:06;;;;;;;7.80;5.05;;;22.50;99.90;;;;;;4990663;28;20535;-74
2022/08/30 09:28:42;;;;;;;5.78;4.47;;;22.40;99.90;;;;;;4992050;28;20380;-74
2022/08/30 09:31:21;;;;;;;;;;;22.60;99.90;;;;;;4992493;28;20030;-75
2022/08/30 09:34:08;;;;;;;6.40;4.70;;;22.60;99.90;;;;;;4988429;28;19976;-74
2022/08/30 09:36:40;;;;;;;7.10;4.22;;;22.80;99.90;;;;;;4989943;28;20564;-74
2022/08/30 09:39:18;;;;;;;9.30;4.53;;;22.90;99.90;;;;;;4991013;28;20038;-73
2022/08/30 09:41:48;;;;;;;9.93;4.68;;;23.10;99.90;;;;;;4975845;28;20019;-75
2022/08/30 09:44:18;;;;;;;6.82;4.47;;;23.10;99.90;;;;;;4976194;28;20225;-75
2022/08/30 09:46:50;;;;;;;7.38;4.38;;;23.10;99.90;;;;;;4994343;28;20042;-75
2022/08/30 09:49:36;;;;;;;6.80;4.07;;;23.00;99.90;;;;;;4995575;28;20014;-74
2022/08/30 09:52:07;;;;;;;;;;;23.00;99.90;;;;;;4992236;28;20146;-74
2022/08/30 09:54:46;;;;;;;8.77;4.80;;;23.20;99.90;;;;;;4994478;28;19975;-74
2022/08/30 09:57:28;;;;;;;10.48;3.92;;;23.30;99.90;;;;;;4982924;28;20081;-75
2022/08/30 10:00:17;;;;;;;8.43;4.32;;;23.40;99.90;;;;;;4988199;28;20086;-74
2022/08/30 10:03:08;;;;;;;6.97;4.30;;;23.20;99.90;;;;;;4993954;28;20026;-74
2022/08/30 10:05:42;;;;;;;7.72;4.43;;;23.20;99.90;;;;;;4995223;28;20471;-73
2022/08/30 10:08:27;;;;;;;6.90;4.60;;;23.50;99.90;;;;;;4982023;28;20041;-73
2022/08/30 10:11:04;;;;;;;7.45;3.97;;;23.70;99.90;;;;;;4983413;28;20027;-74
2022/08/30 10:13:49;;;;;;;5.68;4.18;;;23.90;99.90;;;;;;4982593;28;20092;-74
2022/08/30 10:16:30;;;;;;;6.45;4.38;;;23.50;99.90;;;;;;4981995;28;20018;-74
2022/08/30 10:19:14;;;;;;;5.97;4.05;;;23.40;99.90;;;;;;4986832;28;20022;-73
2022/08/30 10:21:42;;;;;;;7.45;4.53;;;23.60;99.90;;;;;;4982858;28;20098;-74
2022/08/30 10:24:18;;;;;;;14.30;4.88;;;23.70;99.90;;;;;;4981052;28;20110;-73
2022/08/30 10:26:53;;;;;;;6.88;4.47;;;23.80;99.90;;;;;;4984881;28;20503;-73
2022/08/30 10:29:29;;;;;;;7.63;4.40;;;24.00;99.90;;;;;;4981882;28;20035;-74
2022/08/30 10:32:04;;;;;;;7.10;4.38;;;23.90;99.90;;;;;;4983515;28;20533;-73
2022/08/30 10:34:55;;;;;;;7.22;4.45;;;24.20;99.90;;;;;;4987236;28;20370;-74
2022/08/30 10:37:25;;;;;;;7.65;4.72;;;24.40;99.90;;;;;;4986829;28;20035;-74
2022/08/30 10:43:01;;;;;;;8.35;4.80;;;24.50;99.90;;;;;;4984376;28;20045;-74
2022/08/30 10:45:29;;;;;;;6.60;4.18;;;24.70;99.90;;;;;;4986619;28;20027;-74
2022/08/30 10:48:23;;;;;;;6.28;4.45;;;24.60;99.90;;;;;;4982839;28;20035;-73
2022/08/30 10:50:53;;;;;;;7.40;4.50;;;24.70;99.90;;;;;;4981942;28;20168;-74
2022/08/30 10:53:28;;;;;;;7.72;4.45;;;24.80;99.90;;;;;;4980182;28;20027;-74
2022/08/30 10:55:59;;;;;;;;;;;24.90;99.90;;;;;;4986405;28;20023;-74
2022/08/30 10:58:25;;;;;;;8.50;4.38;;;24.90;99.90;;;;;;4999025;28;19916;-74
2022/08/30 11:01:27;;;;;;;6.10;4.00;;;25.10;99.90;;;;;;5001222;28;20400;-74
2022/08/30 11:04:27;;;;;;;7.50;3.92;;;25.40;99.90;;;;;;5005219;28;20079;-75
2022/08/30 11:07:08;;;;;;;7.07;4.10;;;25.60;99.90;;;;;;5008270;28;20033;-75
2022/08/30 11:09:40;;;;;;;6.03;3.95;;;25.10;99.90;;;;;;5004045;28;20022;-74
2022/08/30 11:12:05;;;;;;;8.07;3.95;;;25.30;99.90;;;;;;5010883;28;20026;-75
2022/08/30 11:14:31;;;;;;;7.72;3.65;;;25.50;99.90;;;;;;4995857;28;20018;-75
2022/08/30 11:16:59;;;;;;;6.70;4.30;;;25.50;99.90;;;;;;4990857;28;20620;-75
2022/08/30 11:19:40;;;;;;;7.97;4.15;;;25.70;99.90;;;;;;4989488;28;20053;-74
2022/08/30 11:22:15;;;;;;;7.20;3.78;;;25.70;99.90;;;;;;4989967;28;20121;-75
2022/08/30 11:24:56;;;;;;;5.20;3.90;;;25.70;99.90;;;;;;4992405;28;20026;-75
2022/08/30 11:27:52;;;;;;;7.47;4.25;;;26.10;99.90;;;;;;4993445;28;20113;-75
2022/08/30 11:30:23;;;;;;;8.98;3.80;;;26.20;99.90;;;;;;4993113;28;20057;-76
2022/08/30 11:32:58;;;;;;;7.80;3.90;;;26.20;99.90;;;;;;4993551;28;20034;-75
2022/08/30 11:35:41;;;;;;;4.63;3.73;;;26.30;99.90;;;;;;4993668;28;20424;-75
2022/08/30 11:38:26;;;;;;;4.85;3.63;;;26.30;99.90;;;;;;4993424;28;20033;-76
2022/08/30 11:41:11;;;;;;;5.57;3.40;;;26.40;99.90;;;;;;4993488;28;20023;-75
2022/08/30 11:43:38;;;;;;;7.07;4.07;;;26.70;99.90;;;;;;4993454;28;20034;-75
2022/08/30 11:46:26;;;;;;;6.82;3.10;;;26.60;99.90;;;;;;4993516;28;20030;-76
2022/08/30 11:49:12;;;;;;;5.40;3.58;;;26.50;99.90;;;;;;4993008;28;20058;-74
2022/08/30 11:51:47;;;;;;;7.65;3.90;;;26.60;99.90;;;;;;4991999;28;20049;-76
2022/08/30 11:54:23;;;;;;;14.30;3.80;;;26.70;99.90;;;;;;4993352;28;20511;-75
2022/08/30 11:56:54;;;;;;;;;;;26.50;99.90;;;;;;4993365;28;20061;-73
2022/08/30 11:59:43;;;;;;;8.13;4.05;;;26.80;99.90;;;;;;4991650;28;19912;-75
2022/08/30 12:02:42;;;;;;;4.13;3.40;;;27.10;99.90;;;;;;4993147;28;20026;-75
2022/08/30 12:05:08;;;;;;;6.55;4.05;;;27.10;99.70;;;;;;4993127;28;20030;-75
2022/08/30 12:08:00;;;;;;;5.00;3.13;;;27.50;99.90;;;;;;4991701;28;20062;-75
2022/08/30 12:10:44;;;;;;;4.82;3.25;;;27.50;98.60;;;;;;4991784;28;20026;-76
2022/08/30 12:13:41;;;;;;;7.60;3.80;;;27.90;98.10;;;;;;4990602;28;20037;-74
2022/08/30 12:16:14;;;;;;;4.88;3.30;;;27.80;97.50;;;;;;4991400;28;20026;-75
2022/08/30 12:19:00;;;;;;;6.47;3.10;;;28.10;97.40;;;;;;4981472;28;20027;-74
2022/08/30 12:21:29;;;;;;;5.00;3.07;;;28.30;96.50;;;;;;4978581;28;20481;-74
2022/08/30 12:24:19;;;;;;;4.15;3.15;;;27.80;96.40;;;;;;4979495;28;20065;-74
2022/08/30 12:26:47;;;;;;;5.57;3.28;;;27.80;96.40;;;;;;4982979;28;20030;-74
2022/08/30 12:29:15;;;;;;;4.78;3.22;;;28.10;96.30;;;;;;4976163;28;20589;-74
2022/08/30 12:31:50;;;;;;;5.45;3.40;;;28.60;95.60;;;;;;4983449;28;20030;-74
2022/08/30 12:34:23;;;;;;;4.30;3.60;;;29.00;95.30;;;;;;4979772;28;20023;-73
2022/08/30 12:36:54;;;;;;;6.10;3.38;;;29.30;95.50;;;;;;4979893;28;20019;-75
2022/08/30 12:39:23;;;;;;;3.97;3.58;;;30.00;95.70;;;;;;4980130;28;20106;-74
2022/08/30 12:41:50;;;;;;;5.10;3.40;;;29.30;94.30;;;;;;4992423;28;20093;-75
2022/08/30 12:44:20;;;;;;;4.85;3.33;;;29.50;94.90;;;;;;4991304;28;20110;-76
2022/08/30 12:46:51;;;;;;;6.72;3.35;;;29.60;93.50;;;;;;4990840;28;20027;-73
2022/08/30 12:49:17;;;;;;;5.20;3.70;;;29.10;93.50;;;;;;4986004;28;20611;-73
2022/08/30 12:51:43;;;;;;;5.45;3.78;;;28.60;94.30;;;;;;4988904;28;20085;-76
2022/08/30 12:54:14;;;;;;;5.72;3.50;;;29.20;93.80;;;;;;4987843;28;20412;-75
2022/08/30 12:56:51;;;;;;;7.30;3.95;;;29.30;93.80;;;;;;4987761;28;20031;-75
2022/08/30 12:59:40;;;;;;;5.97;3.42;;;29.50;93.70;;;;;;4992345;28;20073;-74
2022/08/30 13:02:18;;;;;;;7.45;4.00;;;29.60;93.20;;;;;;4992184;28;20037;-75
2022/08/30 13:04:46;;;;;;;6.65;3.40;;;30.40;92.30;;;;;;4992188;28;20093;-75
2022/08/30 13:07:26;;;;;;;5.25;3.30;;;30.00;92.40;;;;;;4991981;28;20468;-73
2022/08/30 13:10:05;;;;;;;5.70;3.53;;;30.40;91.60;;;;;;4990984;28;20485;-72